Time;durP1;ratioP1;P1;durP2;ratioP2;P2;SDS_P1;SDS_P2;PMS_P1;PMS_P2;Temp;Humidity;BMP_temperature;BMP_pressure;BME280_temperature;BME280_humidity;BME280_pressure;Samples;Min_cycle;Max_cycle;Signal;HPM_P1;HPM_P2
2021/09/09 04:01:20;;;;;;;40.03;5.47;;;15.50;99.70;;;;;;5050598;28;20330;-65
2021/09/09 04:03:47;;;;;;;40.57;5.23;;;15.50;99.70;;;;;;5050368;28;20229;-65
2021/09/09 04:06:14;;;;;;;43.47;5.67;;;15.50;99.70;;;;;;5050758;28;20448;-65
2021/09/09 04:08:41;;;;;;;41.70;7.47;;;15.40;99.70;;;;;;5050294;28;20439;-66
2021/09/09 04:11:07;;;;;;;43.43;6.27;;;15.60;99.70;;;;;;5050413;28;20482;-66
2021/09/09 04:13:34;;;;;;;43.13;6.07;;;15.60;99.70;;;;;;5050266;28;20474;-66
2021/09/09 04:16:01;;;;;;;42.20;5.83;;;15.50;99.70;;;;;;5050086;28;20444;-66
2021/09/09 04:18:29;;;;;;;39.63;5.90;;;15.60;99.70;;;;;;5049876;28;20448;-65
2021/09/09 04:20:56;;;;;;;45.70;6.23;;;15.50;99.70;;;;;;5050075;28;20993;-65
2021/09/09 04:23:22;;;;;;;41.00;5.77;;;15.40;99.70;;;;;;5049904;28;20487;-65
2021/09/09 04:25:49;;;;;;;45.23;6.30;;;15.40;99.70;;;;;;5050189;28;20824;-65
2021/09/09 04:28:16;;;;;;;40.30;6.07;;;15.40;99.70;;;;;;5050018;28;20454;-65
2021/09/09 04:30:42;;;;;;;42.73;5.77;;;15.30;99.70;;;;;;5049948;28;20822;-66
2021/09/09 04:33:09;;;;;;;39.33;5.67;;;15.30;99.70;;;;;;5049951;28;20464;-65
2021/09/09 04:35:37;;;;;;;40.90;5.47;;;15.30;99.70;;;;;;5050128;28;21125;-65
2021/09/09 04:38:04;;;;;;;40.53;5.30;;;15.30;99.70;;;;;;5050063;28;20443;-65
2021/09/09 04:40:31;;;;;;;44.77;6.30;;;15.40;99.70;;;;;;5050692;28;20451;-65
2021/09/09 04:42:58;;;;;;;39.93;5.40;;;15.40;99.70;;;;;;5054029;28;20495;-66
2021/09/09 04:45:25;;;;;;;41.90;5.53;;;15.50;99.70;;;;;;5054101;28;20505;-65
2021/09/09 04:47:52;;;;;;;42.50;6.43;;;15.50;99.70;;;;;;5053730;28;20748;-65
2021/09/09 04:50:19;;;;;;;42.97;5.80;;;15.50;99.70;;;;;;5053640;28;20443;-66
2021/09/09 04:52:47;;;;;;;42.03;6.03;;;15.50;99.70;;;;;;5053800;28;20472;-66
2021/09/09 04:55:14;;;;;;;42.03;5.40;;;15.60;99.70;;;;;;5053757;28;20450;-66
2021/09/09 04:57:40;;;;;;;43.10;6.73;;;15.50;99.70;;;;;;5053729;28;20454;-66
2021/09/09 05:00:08;;;;;;;39.80;5.17;;;15.60;99.70;;;;;;5053339;28;20447;-65
2021/09/09 05:02:35;;;;;;;42.60;5.73;;;15.60;99.70;;;;;;5053501;28;20491;-65
2021/09/09 05:05:02;;;;;;;40.80;5.60;;;15.50;99.70;;;;;;5053443;28;20448;-65
2021/09/09 05:07:29;;;;;;;41.87;6.03;;;15.50;99.70;;;;;;5053542;28;20463;-65
2021/09/09 05:09:57;;;;;;;41.83;5.10;;;15.50;99.70;;;;;;5053172;28;20447;-66
2021/09/09 05:12:23;;;;;;;42.40;4.90;;;15.50;99.70;;;;;;5053360;28;20467;-65
2021/09/09 05:14:50;;;;;;;42.60;5.07;;;15.60;99.70;;;;;;5053559;28;20538;-65
2021/09/09 05:17:17;;;;;;;42.30;6.07;;;15.60;99.70;;;;;;5053322;28;20444;-66
2021/09/09 05:19:43;;;;;;;46.23;6.13;;;15.70;99.70;;;;;;5053099;28;20451;-66
2021/09/09 05:22:10;;;;;;;40.73;5.30;;;15.60;99.70;;;;;;5052987;28;20443;-65
2021/09/09 05:24:37;;;;;;;37.57;4.83;;;15.50;99.70;;;;;;5053134;28;20962;-65
2021/09/09 05:27:05;;;;;;;42.00;5.80;;;15.60;99.70;;;;;;5053084;28;20447;-65
2021/09/09 05:29:32;;;;;;;41.17;5.00;;;15.60;99.70;;;;;;5053023;28;20447;-66
2021/09/09 05:31:58;;;;;;;43.20;6.07;;;15.50;99.70;;;;;;5052979;28;20444;-66
2021/09/09 05:34:25;;;;;;;45.40;6.10;;;15.50;99.70;;;;;;5053124;28;20471;-65
2021/09/09 05:36:52;;;;;;;41.17;5.00;;;15.50;99.70;;;;;;5052979;28;20454;-65
2021/09/09 05:39:19;;;;;;;41.70;6.50;;;15.70;99.70;;;;;;5052545;28;20964;-65
2021/09/09 05:41:45;;;;;;;46.60;6.23;;;15.90;99.70;;;;;;5052822;28;20451;-65
2021/09/09 05:44:13;;;;;;;46.17;6.47;;;15.80;99.70;;;;;;5052588;28;20488;-66
2021/09/09 05:46:40;;;;;;;41.10;6.03;;;15.80;99.70;;;;;;5052766;28;20973;-65
2021/09/09 05:49:07;;;;;;;42.57;5.73;;;15.80;99.70;;;;;;5052066;28;20452;-66
2021/09/09 05:51:33;;;;;;;39.90;5.60;;;15.90;99.70;;;;;;5051978;28;20451;-65
2021/09/09 05:54:02;;;;;;;40.13;5.70;;;15.80;99.70;;;;;;5052045;28;20459;-65
2021/09/09 05:56:29;;;;;;;43.83;6.63;;;15.90;99.70;;;;;;5052431;28;20454;-66
2021/09/09 05:58:56;;;;;;;40.63;5.30;;;15.90;99.70;;;;;;5052305;28;20451;-66
2021/09/09 06:01:24;;;;;;;46.20;7.30;;;16.00;99.70;;;;;;5052498;28;20499;-66
2021/09/09 06:03:52;;;;;;;41.90;6.53;;;16.00;99.70;;;;;;5052424;28;21009;-66
2021/09/09 06:06:19;;;;;;;41.40;5.57;;;16.00;99.70;;;;;;5052348;28;20448;-65
2021/09/09 06:08:45;;;;;;;40.97;5.70;;;16.20;99.70;;;;;;5051985;28;20440;-66
2021/09/09 06:11:12;;;;;;;41.20;6.20;;;16.30;99.70;;;;;;5052377;28;20514;-66
2021/09/09 06:13:39;;;;;;;38.60;5.80;;;16.50;99.70;;;;;;5052125;28;20463;-65
2021/09/09 06:16:07;;;;;;;40.33;6.30;;;16.60;99.70;;;;;;5052191;28;20823;-66
2021/09/09 06:18:35;;;;;;;39.23;5.93;;;16.70;99.70;;;;;;5051743;28;20451;-66
2021/09/09 06:21:02;;;;;;;37.80;5.77;;;16.80;99.70;;;;;;5051993;28;20448;-68
2021/09/09 06:23:29;;;;;;;504.42;480.35;;;16.80;99.70;;;;;;5050637;28;20454;-60
2021/09/09 06:25:56;;;;;;;347.10;330.50;;;17.20;99.70;;;;;;5051734;28;20204;-61
2021/09/09 06:28:22;;;;;;;272.63;259.60;;;17.00;99.70;;;;;;5051543;28;20435;-62
2021/09/09 06:30:49;;;;;;;34.93;21.47;;;16.90;99.70;;;;;;5039624;28;20866;-62
2021/09/09 06:33:16;;;;;;;64.90;25.35;;;17.40;99.70;;;;;;5051501;28;20430;-70
2021/09/09 06:35:46;;;;;;;54.07;12.90;;;18.00;99.70;;;;;;5051332;28;20679;-68
2021/09/09 06:38:12;;;;;;;56.70;15.47;;;18.20;99.70;;;;;;5051500;28;20555;-68
2021/09/09 06:40:39;;;;;;;57.17;14.40;;;18.10;99.70;;;;;;5050855;28;20930;-67
2021/09/09 06:43:06;;;;;;;57.33;14.80;;;18.20;99.70;;;;;;5050801;28;20484;-67
2021/09/09 06:45:33;;;;;;;54.77;16.80;;;18.40;99.70;;;;;;5050375;28;20444;-68
2021/09/09 06:48:00;;;;;;;59.77;18.60;;;18.60;99.70;;;;;;5050756;28;20454;-67
2021/09/09 06:50:26;;;;;;;60.23;17.10;;;18.80;99.70;;;;;;5050899;28;20447;-67
2021/09/09 06:52:54;;;;;;;61.07;15.50;;;19.10;99.70;;;;;;5049299;28;20472;-68
2021/09/09 06:55:22;;;;;;;54.07;15.20;;;19.50;99.70;;;;;;5049914;28;20446;-67
2021/09/09 06:57:50;;;;;;;60.53;14.77;;;19.80;99.70;;;;;;5050561;28;20444;-68
2021/09/09 07:00:17;;;;;;;55.67;16.20;;;20.20;99.70;;;;;;5049719;28;20452;-68
2021/09/09 07:02:44;;;;;;;58.50;17.10;;;20.20;99.70;;;;;;5050388;28;20895;-68
2021/09/09 07:05:12;;;;;;;53.70;15.70;;;20.00;99.70;;;;;;5050878;28;20440;-68
2021/09/09 07:07:38;;;;;;;51.60;14.80;;;20.30;99.70;;;;;;5050024;28;20444;-68
2021/09/09 07:10:08;;;;;;;52.47;14.47;;;21.10;99.70;;;;;;5050630;28;20456;-68
2021/09/09 07:12:34;;;;;;;55.37;14.87;;;21.70;99.70;;;;;;5050284;28;21002;-68
2021/09/09 07:15:01;;;;;;;67.07;46.67;;;22.20;99.70;;;;;;5050307;28;20475;-68
2021/09/09 07:17:28;;;;;;;117.17;111.50;;;22.30;99.70;;;;;;5050480;28;20455;-68
2021/09/09 07:19:55;;;;;;;95.53;90.93;;;22.10;99.70;;;;;;5049755;28;20959;-68
2021/09/09 07:22:21;;;;;;;130.77;124.47;;;21.60;99.70;;;;;;5050244;28;20498;-68
2021/09/09 07:24:48;;;;;;;188.33;179.33;;;21.10;99.70;;;;;;5042329;28;20484;-68
2021/09/09 07:27:18;;;;;;;207.60;197.67;;;20.90;99.70;;;;;;5041120;28;20476;-69
2021/09/09 07:29:45;;;;;;;189.37;180.30;;;21.00;99.70;;;;;;5038594;28;20436;-68
2021/09/09 07:32:13;;;;;;;192.40;183.17;;;21.10;99.70;;;;;;5040747;28;20495;-68
2021/09/09 07:34:39;;;;;;;187.73;178.77;;;21.30;99.70;;;;;;5045934;28;20441;-68
2021/09/09 07:37:06;;;;;;;162.90;155.10;;;21.50;99.70;;;;;;5050134;28;20451;-68
2021/09/09 07:39:33;;;;;;;104.80;99.77;;;21.90;99.70;;;;;;5049567;28;20443;-68
2021/09/09 07:42:00;;;;;;;128.00;121.83;;;22.50;99.70;;;;;;5050147;28;20439;-68
2021/09/09 07:44:28;;;;;;;90.53;82.60;;;22.60;99.70;;;;;;5049724;28;20483;-68
2021/09/09 07:46:54;;;;;;;107.93;102.73;;;22.80;99.70;;;;;;5049479;28;20440;-68
2021/09/09 07:49:21;;;;;;;79.63;72.67;;;22.80;99.70;;;;;;5050096;28;20483;-68
2021/09/09 07:51:49;;;;;;;103.13;98.17;;;22.40;99.70;;;;;;5049639;28;20444;-69
2021/09/09 07:54:15;;;;;;;115.33;109.80;;;22.00;99.70;;;;;;5049660;28;20555;-68
2021/09/09 07:56:42;;;;;;;137.90;131.27;;;21.80;99.70;;;;;;5049550;28;20446;-68
2021/09/09 07:59:09;;;;;;;129.47;123.27;;;21.50;99.70;;;;;;5049689;28;20456;-68
2021/09/09 08:01:37;;;;;;;105.10;100.03;;;21.50;99.70;;;;;;5049735;28;20450;-69
2021/09/09 08:04:04;;;;;;;77.43;65.77;;;21.40;99.70;;;;;;5049643;28;20483;-68
2021/09/09 08:06:30;;;;;;;110.10;104.80;;;21.40;99.70;;;;;;5049712;28;20443;-68
2021/09/09 08:08:57;;;;;;;78.13;67.90;;;21.40;99.70;;;;;;5049509;28;20440;-68
2021/09/09 08:11:24;;;;;;;203.43;193.70;;;21.40;99.70;;;;;;5049561;28;20451;-68
2021/09/09 08:13:52;;;;;;;196.73;187.30;;;21.50;99.70;;;;;;5049280;28;20466;-68
2021/09/09 08:16:19;;;;;;;175.17;166.77;;;21.60;99.70;;;;;;5049051;28;20542;-68
2021/09/09 08:18:47;;;;;;;163.50;155.67;;;21.80;99.70;;;;;;5049061;28;20444;-68
2021/09/09 08:21:15;;;;;;;142.40;135.57;;;22.00;99.70;;;;;;5049513;28;20447;-68
2021/09/09 08:23:42;;;;;;;137.23;130.63;;;22.00;99.70;;;;;;5048989;28;20549;-68
2021/09/09 08:26:09;;;;;;;127.77;121.63;;;22.00;99.70;;;;;;5045180;28;20452;-68
2021/09/09 08:28:36;;;;;;;139.87;133.13;;;22.30;99.70;;;;;;5029297;28;20948;-68
2021/09/09 08:31:03;;;;;;;124.30;118.33;;;22.50;99.70;;;;;;5029561;28;20449;-68
2021/09/09 08:33:29;;;;;;;127.03;120.93;;;22.50;99.70;;;;;;5037289;28;20581;-68
2021/09/09 08:36:04;;;;;;;126.87;120.77;;;22.50;99.70;;;;;;5049131;28;20447;-69
2021/09/09 08:38:31;;;;;;;127.23;121.13;;;22.50;99.70;;;;;;5048942;28;20961;-69
2021/09/09 08:40:57;;;;;;;88.17;81.33;;;22.50;99.70;;;;;;5048676;28;20950;-68
2021/09/09 08:43:24;;;;;;;85.20;78.00;;;22.50;99.70;;;;;;5049212;28;20464;-68
2021/09/09 08:45:53;;;;;;;128.37;122.20;;;22.30;99.70;;;;;;5048972;28;20443;-68
2021/09/09 08:48:21;;;;;;;97.63;92.93;;;22.40;99.70;;;;;;5049146;28;20466;-68
2021/09/09 08:50:48;;;;;;;111.63;106.27;;;22.60;99.70;;;;;;5049002;28;20455;-68
2021/09/09 08:53:16;;;;;;;122.00;116.13;;;22.60;99.70;;;;;;5042704;28;20464;-68
2021/09/09 08:55:43;;;;;;;105.33;100.27;;;22.70;99.70;;;;;;5037384;28;20428;-68
2021/09/09 08:58:10;;;;;;;109.20;103.97;;;22.80;99.70;;;;;;5048989;28;20451;-68
2021/09/09 09:00:37;;;;;;;83.77;79.43;;;22.70;99.70;;;;;;5048935;28;20820;-68
2021/09/09 09:03:04;;;;;;;107.43;102.30;;;22.80;99.70;;;;;;5048710;28;20460;-68
2021/09/09 09:05:41;;;;;;;139.93;133.20;;;22.60;99.70;;;;;;5047057;28;20483;-68
2021/09/09 09:08:08;;;;;;;140.10;133.40;;;22.80;99.70;;;;;;5033971;28;20812;-68
2021/09/09 09:10:36;;;;;;;109.90;104.60;;;22.80;99.70;;;;;;5028586;28;20452;-67
2021/09/09 09:13:03;;;;;;;101.00;96.13;;;22.90;99.70;;;;;;5025975;28;20821;-69
2021/09/09 09:15:32;;;;;;;111.77;106.40;;;23.30;99.70;;;;;;5047830;28;20640;-68
2021/09/09 09:18:01;;;;;;;73.13;59.23;;;23.30;99.70;;;;;;5029147;28;20452;-68
2021/09/09 09:20:38;;;;;;;88.53;82.53;;;23.40;99.70;;;;;;5030955;28;20920;-68
2021/09/09 09:23:19;;;;;;;105.27;100.23;;;23.60;99.70;;;;;;5047613;28;20474;-68
2021/09/09 09:25:52;;;;;;;75.53;69.50;;;23.30;99.70;;;;;;5047463;28;20475;-68
2021/09/09 09:28:39;;;;;;;91.67;87.23;;;23.40;99.70;;;;;;5034011;28;20451;-68
2021/09/09 09:31:08;;;;;;;70.90;59.40;;;23.50;99.70;;;;;;5050474;28;20768;-68
2021/09/09 09:33:36;;;;;;;82.10;76.83;;;23.70;99.70;;;;;;5050283;28;20513;-68
2021/09/09 09:36:14;;;;;;;124.47;118.50;;;23.60;99.70;;;;;;5051985;28;20439;-68
2021/09/09 09:38:41;;;;;;;90.23;85.87;;;23.70;99.70;;;;;;5051556;28;20607;-68
2021/09/09 09:41:09;;;;;;;64.70;48.03;;;23.80;99.70;;;;;;5052158;28;20938;-68
2021/09/09 09:43:36;;;;;;;112.43;107.03;;;23.70;99.70;;;;;;5051861;28;20487;-68
2021/09/09 09:46:05;;;;;;;92.37;87.93;;;23.60;99.70;;;;;;5052244;28;20497;-68
2021/09/09 09:48:34;;;;;;;106.53;101.40;;;23.80;99.70;;;;;;5051178;28;20455;-68
2021/09/09 09:51:02;;;;;;;126.57;117.17;;;24.20;99.70;;;;;;5051987;28;20858;-68
2021/09/09 09:53:29;;;;;;;96.50;91.87;;;24.70;99.70;;;;;;5051969;28;20471;-68
2021/09/09 09:55:56;;;;;;;99.17;94.40;;;25.30;99.70;;;;;;5051062;28;20443;-68
2021/09/09 09:58:24;;;;;;;163.23;155.43;;;25.70;99.70;;;;;;5051691;28;20450;-68
2021/09/09 10:00:51;;;;;;;141.60;134.83;;;25.70;99.70;;;;;;5051534;28;20542;-68
2021/09/09 10:03:22;;;;;;;159.73;152.10;;;25.70;99.70;;;;;;5050622;28;20474;-68
2021/09/09 10:05:53;;;;;;;156.20;148.73;;;25.60;99.70;;;;;;5050286;28;20482;-68
2021/09/09 10:08:21;;;;;;;99.37;94.23;;;25.30;99.70;;;;;;5051809;28;20450;-68
2021/09/09 10:10:48;;;;;;;132.80;126.43;;;25.00;99.70;;;;;;5044227;28;20454;-69
2021/09/09 10:13:17;;;;;;;197.67;188.20;;;24.70;99.70;;;;;;5051299;28;20464;-69
2021/09/09 10:15:46;;;;;;;204.77;194.97;;;24.40;99.70;;;;;;5051467;28;20513;-69
2021/09/09 10:18:14;;;;;;;201.63;191.97;;;24.00;99.70;;;;;;5051097;28;20459;-68
2021/09/09 10:20:44;;;;;;;155.70;148.23;;;23.90;99.70;;;;;;5050981;28;20474;-68
2021/09/09 10:23:12;;;;;;;181.60;172.90;;;24.00;99.70;;;;;;5050920;28;20850;-69
2021/09/09 10:25:48;;;;;;;207.07;197.17;;;24.00;99.70;;;;;;5051537;28;20498;-68
2021/09/09 10:28:45;;;;;;;181.77;173.07;;;23.90;99.70;;;;;;5051180;28;20454;-68
2021/09/09 10:31:15;;;;;;;109.83;104.57;;;24.10;99.70;;;;;;5051088;28;20451;-68
2021/09/09 10:33:44;;;;;;;141.47;134.67;;;24.10;99.70;;;;;;5050655;28;20473;-68
2021/09/09 10:36:37;;;;;;;190.43;181.33;;;24.30;99.70;;;;;;5051222;28;20946;-68
2021/09/09 10:39:04;;;;;;;123.87;117.93;;;24.30;99.70;;;;;;5050456;28;20452;-68
2021/09/09 10:41:31;;;;;;;183.20;174.40;;;24.40;99.70;;;;;;5050959;28;20458;-68
2021/09/09 10:43:59;;;;;;;143.67;136.77;;;24.50;99.70;;;;;;5050412;28;20463;-68
2021/09/09 10:46:33;;;;;;;195.20;185.87;;;24.60;99.70;;;;;;5050824;28;20447;-69
2021/09/09 10:49:05;;;;;;;199.13;189.60;;;24.50;99.70;;;;;;5050222;28;20447;-68
2021/09/09 10:51:32;;;;;;;198.43;188.93;;;24.40;99.70;;;;;;5050978;28;20954;-68
2021/09/09 10:54:00;;;;;;;202.20;192.50;;;24.60;99.70;;;;;;5050959;28;20482;-68
2021/09/09 10:56:29;;;;;;;139.30;132.63;;;24.70;99.70;;;;;;5050634;28;20454;-68
2021/09/09 10:59:10;;;;;;;107.70;102.53;;;24.30;99.70;;;;;;5050886;28;20966;-68
2021/09/09 11:01:41;;;;;;;119.37;113.67;;;24.30;99.70;;;;;;5050988;28;20444;-67
2021/09/09 11:04:08;;;;;;;57.27;37.73;;;24.30;99.70;;;;;;5050126;28;20471;-68
2021/09/09 11:06:35;;;;;;;62.10;40.73;;;24.30;99.70;;;;;;5050834;28;20874;-67
2021/09/09 11:09:13;;;;;;;63.30;56.63;;;24.30;99.70;;;;;;5050587;28;20817;-69
2021/09/09 11:11:46;;;;;;;66.80;53.23;;;24.40;99.70;;;;;;5050866;28;20895;-68
2021/09/09 11:14:15;;;;;;;66.40;51.33;;;24.40;99.70;;;;;;5050624;28;20470;-67
2021/09/09 11:16:44;;;;;;;68.17;60.63;;;24.30;99.70;;;;;;5050889;28;20539;-68
2021/09/09 11:19:12;;;;;;;73.23;69.53;;;24.20;99.70;;;;;;5050121;28;20451;-68
2021/09/09 11:21:42;;;;;;;66.07;50.53;;;24.20;99.70;;;;;;5051004;28;20460;-68
2021/09/09 11:24:12;;;;;;;64.67;48.47;;;24.00;99.70;;;;;;5050076;28;20529;-68
2021/09/09 11:26:41;;;;;;;65.50;51.10;;;24.10;99.70;;;;;;5050787;28;20953;-68
2021/09/09 11:29:08;;;;;;;66.27;52.33;;;24.10;99.70;;;;;;5050042;28;20526;-69
2021/09/09 11:31:46;;;;;;;58.60;41.17;;;24.20;99.70;;;;;;5050658;28;20443;-68
2021/09/09 11:34:21;;;;;;;62.60;49.70;;;24.40;99.70;;;;;;5049653;28;20468;-69
2021/09/09 11:36:48;;;;;;;61.60;46.73;;;24.50;99.70;;;;;;5050626;28;20454;-69
2021/09/09 11:39:20;;;;;;;61.03;42.20;;;24.50;99.70;;;;;;5049672;28;20450;-70
2021/09/09 11:41:48;;;;;;;61.97;45.67;;;24.50;99.70;;;;;;5050448;28;20436;-68
2021/09/09 11:44:26;;;;;;;63.90;45.47;;;24.50;99.70;;;;;;5049866;28;20550;-68
2021/09/09 11:46:55;;;;;;;67.53;59.07;;;24.50;99.70;;;;;;5049703;28;20443;-68
2021/09/09 11:49:24;;;;;;;62.87;44.10;;;24.60;99.70;;;;;;5049220;28;20463;-70
2021/09/09 11:51:52;;;;;;;61.00;39.30;;;24.30;99.70;;;;;;5049487;28;20451;-68
2021/09/09 11:54:21;;;;;;;77.50;73.77;;;24.40;99.70;;;;;;5049874;28;20473;-67
2021/09/09 11:56:49;;;;;;;71.53;43.47;;;24.50;99.70;;;;;;5049711;28;20448;-67
2021/09/09 11:59:18;;;;;;;57.20;36.93;;;24.50;99.70;;;;;;5049847;28;20455;-69
2021/09/09 12:01:48;;;;;;;59.77;43.97;;;24.70;99.70;;;;;;5049815;28;20456;-68
2021/09/09 12:04:18;;;;;;;59.70;41.87;;;24.70;99.70;;;;;;5049475;28;20472;-68
2021/09/09 12:06:48;;;;;;;55.13;35.13;;;24.70;99.70;;;;;;5049749;28;20530;-67
2021/09/09 12:09:25;;;;;;;55.27;31.00;;;24.60;99.70;;;;;;5049642;28;20942;-69
2021/09/09 12:12:02;;;;;;;50.73;25.57;;;24.60;99.70;;;;;;5047661;28;20476;-68
2021/09/09 12:14:29;;;;;;;51.20;22.43;;;24.60;99.70;;;;;;5039280;28;20451;-68
2021/09/09 12:17:13;;;;;;;53.30;24.83;;;24.60;99.70;;;;;;5039539;28;20435;-69
2021/09/09 12:19:59;;;;;;;49.23;22.63;;;24.50;99.70;;;;;;5039478;28;20444;-68
2021/09/09 12:22:44;;;;;;;50.90;23.30;;;24.60;99.70;;;;;;5039907;28;20513;-70
2021/09/09 12:25:22;;;;;;;49.07;22.20;;;24.50;99.70;;;;;;5038569;28;20476;-70
2021/09/09 12:28:08;;;;;;;46.80;19.40;;;24.50;99.70;;;;;;5043497;28;20550;-68
2021/09/09 12:30:37;;;;;;;47.47;20.60;;;24.40;99.70;;;;;;5036602;28;21007;-68
2021/09/09 12:33:15;;;;;;;52.43;20.90;;;24.60;99.70;;;;;;5029035;28;21006;-68
2021/09/09 12:36:01;;;;;;;46.30;17.50;;;24.70;99.70;;;;;;5046831;28;20988;-69
2021/09/09 12:38:31;;;;;;;45.20;18.17;;;24.70;99.70;;;;;;5042540;28;20444;-68
2021/09/09 12:40:58;;;;;;;50.90;19.67;;;24.90;99.10;;;;;;5028746;28;20457;-69
2021/09/09 12:43:29;;;;;;;45.40;16.43;;;24.90;99.70;;;;;;5028906;28;20464;-68
2021/09/09 12:45:57;;;;;;;50.93;16.93;;;24.80;99.70;;;;;;5029602;28;20884;-69
2021/09/09 12:48:24;;;;;;;44.80;15.37;;;24.90;99.70;;;;;;5034499;28;21029;-68
2021/09/09 12:50:55;;;;;;;47.27;14.13;;;25.00;99.30;;;;;;5047205;28;20451;-70
2021/09/09 12:53:24;;;;;;;45.50;13.00;;;25.00;98.40;;;;;;5047137;28;20474;-69
2021/09/09 12:55:57;;;;;;;46.93;19.03;;;25.10;97.30;;;;;;5048288;28;20443;-69
2021/09/09 12:58:24;;;;;;;47.63;15.90;;;25.00;99.70;;;;;;5049081;28;20565;-68
2021/09/09 13:00:51;;;;;;;43.83;14.57;;;25.10;99.20;;;;;;5049417;28;20526;-68
2021/09/09 13:03:18;;;;;;;44.00;12.93;;;25.20;96.90;;;;;;5050660;28;20462;-69
2021/09/09 13:05:44;;;;;;;44.40;13.37;;;25.30;96.70;;;;;;5051060;28;20483;-69
2021/09/09 13:08:14;;;;;;;46.77;16.57;;;25.20;97.00;;;;;;5052665;28;20446;-69
2021/09/09 13:10:40;;;;;;;50.77;15.13;;;25.10;97.30;;;;;;5052053;28;20455;-69
2021/09/09 13:13:07;;;;;;;48.27;16.93;;;25.10;97.80;;;;;;5052867;28;20459;-69
2021/09/09 13:15:36;;;;;;;46.37;15.17;;;25.00;98.30;;;;;;5050529;28;20447;-68
2021/09/09 13:18:03;;;;;;;45.43;15.10;;;25.00;98.50;;;;;;5052377;28;20462;-68
2021/09/09 13:20:29;;;;;;;45.00;13.03;;;24.80;99.20;;;;;;5052341;28;20486;-69
2021/09/09 13:22:56;;;;;;;43.90;13.50;;;24.60;97.50;;;;;;5051760;28;21016;-69
2021/09/09 13:25:24;;;;;;;46.87;14.23;;;24.70;98.50;;;;;;5052485;28;20506;-68
2021/09/09 13:27:51;;;;;;;46.47;14.60;;;24.50;98.90;;;;;;5052626;28;20466;-68
2021/09/09 13:30:17;;;;;;;46.30;13.97;;;24.70;98.50;;;;;;5052444;28;20491;-69
2021/09/09 13:32:44;;;;;;;48.60;14.80;;;24.80;97.80;;;;;;5052275;28;20739;-68
2021/09/09 13:35:11;;;;;;;45.23;15.37;;;24.80;97.50;;;;;;5052359;28;20447;-69
2021/09/09 13:37:38;;;;;;;43.70;13.80;;;24.90;97.00;;;;;;5052287;28;20766;-69
2021/09/09 13:40:05;;;;;;;46.13;13.73;;;24.90;97.20;;;;;;5052376;28;20444;-68
2021/09/09 13:42:34;;;;;;;48.07;16.67;;;24.80;98.10;;;;;;5052015;28;20466;-69
2021/09/09 13:45:00;;;;;;;45.03;16.43;;;24.80;99.70;;;;;;5051898;28;20454;-69
2021/09/09 13:47:27;;;;;;;43.00;12.40;;;24.80;98.30;;;;;;5033533;28;20453;-69
2021/09/09 13:49:54;;;;;;;44.97;13.93;;;25.00;96.00;;;;;;5030719;28;20444;-69
2021/09/09 13:52:21;;;;;;;44.17;14.43;;;25.00;97.40;;;;;;5031399;28;20452;-69
2021/09/09 13:54:48;;;;;;;45.60;15.30;;;25.00;97.60;;;;;;5036831;28;20543;-69
2021/09/09 13:57:15;;;;;;;44.23;15.17;;;24.90;98.50;;;;;;5032359;28;20436;-68
2021/09/09 13:59:43;;;;;;;44.90;12.97;;;24.90;99.00;;;;;;5031548;28;20827;-69
2021/09/09 14:02:09;;;;;;;43.03;12.60;;;24.90;97.90;;;;;;5031455;28;20456;-69
2021/09/09 14:04:36;;;;;;;43.50;11.93;;;24.90;96.80;;;;;;5031072;28;20452;-69
2021/09/09 14:07:03;;;;;;;44.80;12.53;;;24.90;97.10;;;;;;5032072;28;20542;-69
2021/09/09 14:09:30;;;;;;;43.47;12.50;;;25.00;98.00;;;;;;5031641;28;20455;-69
2021/09/09 14:11:56;;;;;;;43.60;11.00;;;24.90;96.20;;;;;;5036729;28;20450;-68
2021/09/09 14:14:23;;;;;;;44.00;11.50;;;24.90;97.20;;;;;;5037319;28;20490;-69
2021/09/09 14:16:51;;;;;;;46.23;11.90;;;24.90;97.60;;;;;;5031407;28;20932;-69
2021/09/09 14:19:18;;;;;;;42.63;11.80;;;24.90;97.50;;;;;;5031271;28;20452;-68
2021/09/09 14:21:45;;;;;;;42.07;10.47;;;24.90;98.10;;;;;;5031271;28;20755;-69
2021/09/09 14:24:11;;;;;;;41.23;9.97;;;24.80;97.00;;;;;;5044044;28;20475;-69
2021/09/09 14:26:38;;;;;;;43.00;12.60;;;24.90;96.10;;;;;;5049375;28;20471;-69
2021/09/09 14:29:06;;;;;;;42.50;12.27;;;24.90;96.70;;;;;;5041289;28;20456;-69
2021/09/09 14:31:33;;;;;;;43.50;13.47;;;24.60;98.30;;;;;;5031257;28;20456;-69
2021/09/09 14:34:01;;;;;;;45.17;12.50;;;24.60;98.70;;;;;;5043984;28;20487;-69
2021/09/09 14:36:27;;;;;;;43.10;11.00;;;24.60;99.30;;;;;;5051295;28;20439;-68
2021/09/09 14:38:54;;;;;;;43.70;11.80;;;24.50;97.70;;;;;;5050695;28;20444;-69
2021/09/09 14:41:21;;;;;;;42.93;12.23;;;24.50;99.20;;;;;;5049733;28;20443;-69
2021/09/09 14:43:47;;;;;;;40.80;10.73;;;24.60;99.40;;;;;;5050796;28;20468;-69
2021/09/09 14:46:14;;;;;;;42.83;10.57;;;24.50;98.20;;;;;;5050951;28;20839;-69
2021/09/09 14:48:41;;;;;;;44.57;10.80;;;24.50;97.90;;;;;;5050581;28;21079;-68
2021/09/09 14:51:10;;;;;;;42.63;10.37;;;24.50;98.00;;;;;;5046732;28;20440;-69
2021/09/09 14:53:36;;;;;;;42.80;10.77;;;24.50;97.90;;;;;;5040571;28;20695;-69
2021/09/09 14:56:03;;;;;;;40.77;9.70;;;24.40;97.80;;;;;;5050975;28;20436;-69
2021/09/09 14:58:30;;;;;;;42.70;10.73;;;24.30;98.40;;;;;;5033663;28;20447;-68
2021/09/09 15:00:57;;;;;;;43.03;12.63;;;24.30;99.70;;;;;;5034705;28;20450;-69
2021/09/09 15:03:26;;;;;;;43.83;11.27;;;24.30;99.70;;;;;;5050465;28;20989;-68
2021/09/09 15:05:52;;;;;;;41.10;10.10;;;24.30;99.70;;;;;;5050655;28;20479;-69
2021/09/09 15:08:21;;;;;;;41.90;11.70;;;24.40;99.40;;;;;;5033205;28;20449;-69
2021/09/09 15:10:47;;;;;;;42.40;10.60;;;24.50;99.70;;;;;;5030210;28;20448;-69
2021/09/09 15:13:16;;;;;;;44.43;10.50;;;24.60;99.70;;;;;;5030682;28;20491;-69
2021/09/09 15:15:43;;;;;;;40.57;8.73;;;24.60;97.40;;;;;;5030617;28;20440;-68
2021/09/09 15:18:10;;;;;;;41.97;10.30;;;24.90;95.50;;;;;;5066359;28;20832;-68
2021/09/09 15:20:37;;;;;;;41.37;10.00;;;24.90;97.30;;;;;;5069851;28;20545;-68
2021/09/09 15:23:04;;;;;;;42.00;10.70;;;25.00;96.80;;;;;;5052234;28;20475;-69
2021/09/09 15:25:32;;;;;;;43.00;10.73;;;24.90;97.50;;;;;;5039131;28;20448;-69
2021/09/09 15:28:01;;;;;;;42.20;10.10;;;24.80;97.10;;;;;;5043772;28;20522;-68
2021/09/09 15:30:27;;;;;;;44.03;9.37;;;24.90;95.40;;;;;;5038238;28;20542;-69
2021/09/09 15:32:55;;;;;;;40.63;10.30;;;24.90;95.80;;;;;;5045403;28;20498;-69
2021/09/09 15:35:25;;;;;;;40.30;8.10;;;24.80;96.60;;;;;;5046732;28;20452;-69
2021/09/09 15:37:53;;;;;;;39.93;8.20;;;24.70;94.50;;;;;;5045049;28;20483;-69
2021/09/09 15:40:20;;;;;;;40.83;8.80;;;24.80;93.40;;;;;;5029920;28;20452;-69
2021/09/09 15:42:53;;;;;;;38.73;8.50;;;24.80;94.30;;;;;;5039882;28;20893;-69
2021/09/09 15:45:20;;;;;;;39.70;8.67;;;24.70;94.60;;;;;;5030245;28;20459;-68
2021/09/09 15:47:47;;;;;;;47.13;9.30;;;24.70;94.80;;;;;;5040030;28;20495;-69
2021/09/09 15:50:14;;;;;;;40.97;10.00;;;24.60;95.50;;;;;;5049350;28;20443;-68
2021/09/09 15:52:44;;;;;;;39.67;9.00;;;24.50;96.00;;;;;;5040672;28;20460;-70
2021/09/09 15:55:11;;;;;;;41.10;10.30;;;24.30;97.20;;;;;;5049542;28;20458;-69
2021/09/09 15:57:38;;;;;;;42.60;10.50;;;24.30;97.90;;;;;;5049022;28;20463;-69
2021/09/09 16:00:09;;;;;;;42.30;9.80;;;24.20;98.10;;;;;;5049240;28;20443;-69
2021/09/09 16:02:36;;;;;;;44.37;12.17;;;24.20;97.70;;;;;;5047917;28;20529;-68
2021/09/09 16:05:03;;;;;;;42.30;11.20;;;24.20;99.70;;;;;;5042155;28;20470;-69
2021/09/09 16:07:30;;;;;;;42.80;10.87;;;24.20;97.80;;;;;;5046463;28;20502;-69
2021/09/09 16:09:56;;;;;;;43.23;10.00;;;24.10;98.50;;;;;;5038241;28;20448;-69
2021/09/09 16:12:23;;;;;;;42.90;10.80;;;24.00;98.30;;;;;;5048432;28;20509;-68
2021/09/09 16:14:50;;;;;;;41.27;10.30;;;24.00;99.40;;;;;;5033764;28;20551;-69
2021/09/09 16:17:23;;;;;;;42.40;11.20;;;23.80;99.70;;;;;;5035400;28;20443;-69
2021/09/09 16:19:49;;;;;;;41.53;10.47;;;23.80;99.70;;;;;;5049550;28;20454;-68
2021/09/09 16:22:16;;;;;;;41.60;10.93;;;23.60;99.70;;;;;;5035436;28;20451;-69
2021/09/09 16:24:43;;;;;;;42.47;11.37;;;23.50;99.70;;;;;;5032163;28;20449;-69
2021/09/09 16:27:10;;;;;;;44.80;11.40;;;23.30;99.70;;;;;;5029407;28;20484;-69
2021/09/09 16:29:37;;;;;;;44.77;10.30;;;23.20;99.70;;;;;;5032011;28;20444;-68
2021/09/09 16:32:04;;;;;;;45.17;12.33;;;23.10;99.70;;;;;;5043155;28;20455;-68